Terminal Aerodrome Forecast
Issued by NWS

Home | Current Version | Previous Version | Text Only | Print | Product List | Glossary On
Versions: 1 2 3 4 5 6 7 8 9 10 11 12 13 14 15 16 17 18 19 20 21 22
559
FTUS46 KSGX 261455 AAB
TAFCRQ
TAF AMD
KCRQ 261455Z 2615/2712 27004KT P6SM SCT018 BKN040
     FM261900 28010KT P6SM SCT025
     FM270100 VRB05KT P6SM SCT015
     FM270300 VRB03KT P6SM BKN015=

USA.gov is the U.S. government's official web portal to all federal, state and local government web resources and services.